| Date | Time | Temp. (oF) | Dew Point (oF) | Rel. Hum. (%) | Press. (in.) | Wind Dir. | Wind Speed (mph) | Hourly Rainfall (in.) |
|
|---|---|---|---|---|---|---|---|---|---|
| 1 | 08/18 | 00:00 | 69 | 67 | 94 | 30.04 | SSW | 0 | 0.00 |
| 2 | 08/17 | 23:00 | 71 | 68 | 91 | 30.03 | S | 0 | 0.00 |
| 3 | 08/17 | 22:00 | 72 | 68 | 90 | 30.02 | SSW | 0 | 0.00 |
| 4 | 08/17 | 21:00 | 77 | 67 | 72 | 30.00 | WSW | 0 | 0.00 |
| 5 | 08/17 | 20:00 | 81 | 65 | 60 | 29.98 | WSW | 1 | 0.00 |
| 6 | 08/17 | 19:00 | 83 | 63 | 52 | 29.97 | W | 4 | 0.00 |
| 7 | 08/17 | 18:00 | 85 | 63 | 49 | 29.98 | NNW | 6 | 0.00 |
| 8 | 08/17 | 17:00 | 86 | 61 | 45 | 29.98 | WNW | 3 | 0.00 |
| 9 | 08/17 | 16:00 | 85 | 66 | 55 | 29.99 | NNW | 0 | 0.01 |
| 10 | 08/17 | 15:00 | 85 | 67 | 57 | 30.00 | NNW | 2 | 0.00 |
| 11 | 08/17 | 14:00 | 84 | 68 | 59 | 30.02 | WNW | 7 | 0.00 |
| 12 | 08/17 | 13:00 | 81 | 68 | 66 | 30.03 | WNW | 5 | 0.01 |
| 13 | 08/17 | 12:00 | 79 | 70 | 76 | 30.05 | NW | 4 | 0.00 |
| 14 | 08/17 | 11:00 | 74 | 69 | 86 | 30.06 | W | 2 | 0.01 |
| 15 | 08/17 | 10:00 | 69 | 68 | 100 | 30.06 | WNW | 2 | 0.00 |
| 16 | 08/17 | 09:00 | 67 | 67 | 100 | 30.06 | NW | 2 | 0.00 |
| 17 | 08/17 | 08:00 | 66 | 66 | 100 | 30.05 | W | 2 | 0.01 |
| 18 | 08/17 | 07:00 | 65 | 64 | 100 | 30.04 | NNW | 2 | 0.00 |
| 19 | 08/17 | 06:00 | 64 | 63 | 100 | 30.03 | NW | 2 | 0.01 |
| 20 | 08/17 | 05:00 | 64 | 63 | 100 | 30.02 | SW | 0 | 0.00 |
| 21 | 08/17 | 04:00 | 64 | 63 | 100 | 30.02 | SSW | 2 | 0.00 |
| 22 | miss | miss | miss | miss | miss | miss | miss | miss | |
| 23 | 08/17 | 03:07 | 65 | 64 | 100 | 30.02 | NNW | 2 | 0.01 |
| 24 | miss | miss | miss | miss | miss | miss | miss | miss | |
| 25 | 08/17 | 03:05 | 65 | 64 | 100 | 30.02 | NW | 2 | 0.00 |
| 26 | miss | miss | miss | miss | miss | miss | miss | miss | |
| 27 | 08/17 | 03:05 | 65 | 64 | 100 | 30.02 | NW | 2 | 0.00 |
| 28 | miss | miss | miss | miss | miss | miss | miss | miss | |
| 29 | 08/17 | 03:05 | 65 | 64 | 100 | 30.02 | NW | 2 | 0.00 |
| 30 | miss | miss | miss | miss | miss | miss | miss | miss | |
| 31 | 08/17 | 03:05 | 65 | 64 | 100 | 30.02 | NW | 2 | 0.00 |
| 32 | miss | miss | miss | miss | miss | miss | miss | miss | |
| 33 | 08/17 | 03:05 | 65 | 64 | 100 | 30.02 | NW | 2 | 0.00 |
| 34 | miss | miss | miss | miss | miss | miss | miss | miss | |
| 35 | 08/17 | 03:05 | 65 | 64 | 100 | 30.02 | NW | 2 | 0.00 |
| 36 | miss | miss | miss | miss | miss | miss | miss | miss | |
| 37 | 08/17 | 03:05 | 65 | 64 | 100 | 30.02 | NW | 2 | 0.00 |
| 38 | miss | miss | miss | miss | miss | miss | miss | miss | |
| 39 | 08/17 | 03:05 | 65 | 64 | 100 | 30.02 | NW | 2 | 0.00 |
| 40 | miss | miss | miss | miss | miss | miss | miss | miss | |
| 41 | 08/17 | 03:05 | 65 | 64 | 100 | 30.02 | NW | 2 | 0.00 |
| 42 | miss | miss | miss | miss | miss | miss | miss | miss | |
| 43 | 08/17 | 03:05 | 65 | 64 | 100 | 30.02 | NW | 2 | 0.00 |
| 44 | miss | miss | miss | miss | miss | miss | miss | miss | |
| 45 | 08/17 | 03:05 | 65 | 64 | 100 | 30.02 | NW | 2 | 0.00 |
| 46 | 08/17 | 03:00 | 65 | 64 | 100 | 30.02 | NNW | 1 | 0.00 |
| 47 | 08/17 | 02:00 | 66 | 66 | 100 | 30.04 | SW | 1 | 0.01 |
| 48 | 08/17 | 01:00 | 67 | 67 | 100 | 30.06 | NNW | 1 | 0.00 |
| 49 | 08/17 | 00:00 | 68 | 68 | 100 | 30.05 | NW | 3 | -0.07 |
| 50 | 08/16 | 23:00 | 68 | 68 | 100 | 30.07 | NNW | 0 | 0.01 |
| 51 | 08/16 | 22:00 | 68 | 68 | 100 | 30.07 | N | 2 | 0.01 |
| 52 | 08/16 | 21:00 | 68 | 68 | 100 | 30.05 | NE | 1 | 0.01 |
| 53 | 08/16 | 20:00 | 68 | 68 | 100 | 30.06 | E | 0 | 0.01 |
| 54 | 08/16 | 19:00 | 68 | 68 | 100 | 30.05 | NE | 1 | 0.01 |
| 55 | 08/16 | 18:00 | 69 | 68 | 100 | 30.06 | N | 7 | 0.02 |
| 56 | 08/16 | 17:00 | 71 | 71 | 100 | 30.05 | WNW | 1 | 0.02 |
| 57 | 08/16 | 16:00 | 71 | 71 | 100 | 30.06 | N | 0 | 0.02 |
| 58 | 08/16 | 15:00 | 70 | 69 | 100 | 30.08 | SSW | 1 | 0.02 |
| 59 | 08/16 | 14:00 | 70 | 69 | 100 | 30.10 | SSE | 2 | 0.04 |
| 60 | 08/16 | 13:00 | 69 | 68 | 100 | 30.12 | SSW | 2 | 0.02 |
| 61 | 08/16 | 12:00 | 72 | 72 | 100 | 30.13 | ESE | 3 | 0.05 |
| 62 | 08/16 | 11:00 | 72 | 71 | 99 | 30.14 | ESE | 3 | 0.08 |
| 63 | 08/16 | 10:00 | 72 | 71 | 99 | 30.14 | NE | 1 | 0.01 |
| 64 | 08/16 | 09:00 | 71 | 71 | 100 | 30.12 | SSE | 2 | 0.00 |
| 65 | 08/16 | 08:00 | 71 | 71 | 100 | 30.11 | ESE | 3 | 0.00 |
| 66 | 08/16 | 07:00 | 71 | 70 | 99 | 30.11 | E | 3 | 0.00 |
| 67 | 08/16 | 06:00 | 71 | 70 | 99 | 30.12 | E | 2 | 0.00 |
| 68 | 08/16 | 05:00 | 71 | 70 | 99 | 30.12 | ESE | 1 | 0.00 |
| 69 | 08/16 | 04:00 | 71 | 70 | 98 | 30.11 | SE | 2 | 0.00 |
| 70 | 08/16 | 03:00 | 71 | 69 | 96 | 30.13 | NE | 1 | 0.00 |
| 71 | 08/16 | 02:00 | 71 | 69 | 95 | 30.13 | SSE | 0 | 0.00 |
| 72 | 08/16 | 01:00 | 72 | 69 | 92 | 30.13 | NE | 0 | 0.00 |
| 73 | 08/16 | 00:00 | 73 | 69 | 90 | 30.13 | NNE | 0 | -0.33 |